createdAt,value
2022-09-12T00:00:49.512Z,19.93
2022-09-12T00:03:17.402Z,19.13
2022-09-12T00:05:47.961Z,20.60
2022-09-12T00:08:15.637Z,19.37
2022-09-12T00:10:45.528Z,19.20
2022-09-12T00:13:13.138Z,18.57
2022-09-12T00:15:44.039Z,19.03
2022-09-12T00:18:15.129Z,19.97
2022-09-12T00:20:44.429Z,20.50
2022-09-12T00:23:12.000Z,20.37
2022-09-12T00:25:43.359Z,20.17
2022-09-12T00:28:11.256Z,20.30
2022-09-12T00:30:42.075Z,19.73
2022-09-12T00:33:10.223Z,20.70
2022-09-12T00:35:44.334Z,19.23
2022-09-12T00:38:11.963Z,19.70
2022-09-12T00:40:39.599Z,20.23
2022-09-12T00:43:07.436Z,21.10
2022-09-12T00:45:35.061Z,21.93
2022-09-12T00:48:04.326Z,18.80
2022-09-12T00:50:32.913Z,19.87
2022-09-12T00:53:04.603Z,18.60
2022-09-12T00:55:36.466Z,18.90
2022-09-12T00:58:07.654Z,18.53
2022-09-12T01:00:35.237Z,17.63
2022-09-12T01:03:06.886Z,17.97
2022-09-12T01:05:36.369Z,18.20
2022-09-12T01:08:06.526Z,17.80
2022-09-12T01:10:36.565Z,17.77
2022-09-12T01:13:06.767Z,19.77
2022-09-12T01:15:34.923Z,21.37
2022-09-12T01:18:12.430Z,20.97
2022-09-12T01:20:51.401Z,22.13
2022-09-12T01:23:48.983Z,21.83
2022-09-12T01:27:10.372Z,21.97
2022-09-12T01:30:23.465Z,20.00
2022-09-12T01:33:10.185Z,20.83
2022-09-12T01:35:45.822Z,21.43
2022-09-12T01:38:20.656Z,20.23
2022-09-12T01:40:53.140Z,20.07
2022-09-12T01:43:26.247Z,19.87
2022-09-12T01:45:59.436Z,21.47
2022-09-12T01:48:31.245Z,21.07
2022-09-12T01:51:03.876Z,21.10
2022-09-12T01:53:36.669Z,20.57
2022-09-12T01:56:08.121Z,22.40
2022-09-12T01:58:42.741Z,20.33
2022-09-12T02:01:15.024Z,20.70
2022-09-12T02:03:45.667Z,20.53
2022-09-12T02:06:16.966Z,20.97
2022-09-12T02:08:47.681Z,21.47
2022-09-12T02:11:15.404Z,21.70
2022-09-12T02:13:44.284Z,20.43
2022-09-12T02:16:17.567Z,20.83
2022-09-12T02:18:47.402Z,20.77
2022-09-12T02:21:15.130Z,21.43
2022-09-12T02:23:46.102Z,20.50
2022-09-12T02:26:20.218Z,20.70
2022-09-12T02:28:48.899Z,19.23
2022-09-12T02:31:23.342Z,20.50
2022-09-12T02:34:01.903Z,20.83
2022-09-12T02:36:34.951Z,21.93
2022-09-12T02:39:02.535Z,21.57
2022-09-12T02:41:30.057Z,20.67
2022-09-12T02:43:57.979Z,21.33
2022-09-12T02:46:30.914Z,22.83
2022-09-12T02:48:58.654Z,21.77
2022-09-12T02:51:27.136Z,21.60
2022-09-12T02:53:54.881Z,21.23
2022-09-12T02:56:24.964Z,21.63
2022-09-12T02:58:53.121Z,22.33
2022-09-12T03:01:31.022Z,23.10
2022-09-12T03:04:16.919Z,22.40
2022-09-12T03:06:51.019Z,21.90
2022-09-12T03:09:22.469Z,22.60
2022-09-12T03:12:08.303Z,21.73
2022-09-12T03:15:01.574Z,21.90
2022-09-12T03:17:43.137Z,20.90
2022-09-12T03:20:12.878Z,21.80
2022-09-12T03:22:51.040Z,18.23
2022-09-12T03:25:20.261Z,17.63
2022-09-12T03:27:55.781Z,17.53
2022-09-12T03:30:23.409Z,18.33
2022-09-12T03:32:54.309Z,18.43
2022-09-12T03:35:24.285Z,17.90
2022-09-12T03:37:53.143Z,20.03
2022-09-12T03:40:21.272Z,19.23
2022-09-12T03:42:48.829Z,19.57
2022-09-12T03:45:16.724Z,20.13
2022-09-12T03:47:44.208Z,21.03
2022-09-12T03:50:13.071Z,21.87
2022-09-12T03:52:40.549Z,22.07
2022-09-12T03:55:08.560Z,22.63
2022-09-12T03:57:36.093Z,21.33
2022-09-12T04:00:05.321Z,21.00
2022-09-12T04:02:40.049Z,21.50
2022-09-12T04:05:07.913Z,20.67
2022-09-12T04:07:36.820Z,22.43
2022-09-12T04:10:05.058Z,22.20
2022-09-12T04:12:32.508Z,22.30
2022-09-12T04:14:59.970Z,22.70
2022-09-12T04:17:27.494Z,23.20
2022-09-12T04:19:54.951Z,22.27
2022-09-12T04:22:24.564Z,23.00
2022-09-12T04:24:53.378Z,23.17
2022-09-12T04:27:20.841Z,23.83
2022-09-12T04:29:48.541Z,20.27
2022-09-12T04:32:16.024Z,21.00
2022-09-12T04:34:43.554Z,20.90
2022-09-12T04:37:11.657Z,21.37
2022-09-12T04:39:39.280Z,20.87
2022-09-12T04:42:08.349Z,22.13
2022-09-12T04:44:35.865Z,22.07
2022-09-12T04:47:03.329Z,21.57
2022-09-12T04:49:30.888Z,20.83
2022-09-12T04:52:00.785Z,21.10
2022-09-12T04:54:28.230Z,21.90
2022-09-12T04:56:55.901Z,21.27
2022-09-12T04:59:25.386Z,21.17
2022-09-12T05:01:52.923Z,21.73
2022-09-12T05:04:21.677Z,22.50
2022-09-12T05:06:49.518Z,21.57
2022-09-12T05:09:17.241Z,21.13
2022-09-12T05:14:35.032Z,22.17
2022-09-12T05:17:03.042Z,21.97
2022-09-12T05:19:31.909Z,22.40
2022-09-12T05:21:59.764Z,21.60
2022-09-12T05:24:27.314Z,22.03
2022-09-12T05:26:54.780Z,21.07
2022-09-12T05:29:22.353Z,22.40
2022-09-12T05:31:52.137Z,23.67
2022-09-12T05:34:20.213Z,22.97
2022-09-12T05:36:47.812Z,22.13
2022-09-12T05:39:15.633Z,21.60
2022-09-12T05:41:43.113Z,22.70
2022-09-12T05:44:13.965Z,20.83
2022-09-12T05:46:43.770Z,22.63
2022-09-12T05:49:14.413Z,22.87
2022-09-12T05:51:43.546Z,22.60
2022-09-12T05:54:13.089Z,22.93
2022-09-12T05:56:42.363Z,23.50
2022-09-12T05:59:13.151Z,23.23
2022-09-12T06:01:41.062Z,23.53
2022-09-12T06:04:08.829Z,21.67
2022-09-12T06:06:41.501Z,22.07
2022-09-12T06:09:09.517Z,22.67
2022-09-12T06:11:40.679Z,23.27
2022-09-12T06:14:09.791Z,23.13
2022-09-12T06:16:38.089Z,22.73
2022-09-12T06:19:07.802Z,23.43
2022-09-12T06:21:35.877Z,23.57
2022-09-12T06:24:05.097Z,23.00
2022-09-12T06:26:33.169Z,23.57
2022-09-12T06:29:01.429Z,22.53
2022-09-12T06:31:30.897Z,23.90
2022-09-12T06:34:00.941Z,23.07
2022-09-12T06:36:29.957Z,23.87
2022-09-12T06:38:58.331Z,24.27
2022-09-12T06:41:27.223Z,25.13
2022-09-12T06:43:54.977Z,26.40
2022-09-12T06:46:22.668Z,25.40
2022-09-12T06:48:50.444Z,26.37
2022-09-12T06:51:19.968Z,25.70
2022-09-12T06:53:48.290Z,24.80
2022-09-12T06:56:17.044Z,25.13
2022-09-12T06:58:46.945Z,24.40
2022-09-12T07:01:16.565Z,23.43
2022-09-12T07:03:46.011Z,23.30
2022-09-12T07:06:15.815Z,21.30
2022-09-12T07:08:43.688Z,22.10
2022-09-12T07:11:13.150Z,22.90
2022-09-12T07:13:41.008Z,22.00
2022-09-12T07:16:10.521Z,21.40
2022-09-12T07:18:39.512Z,21.77
2022-09-12T07:21:08.585Z,20.77
2022-09-12T07:23:36.022Z,21.80
2022-09-12T07:26:04.039Z,21.50
2022-09-12T07:28:33.293Z,22.33
2022-09-12T07:31:06.601Z,21.97
2022-09-12T07:33:35.966Z,21.33
2022-09-12T07:36:04.743Z,21.67
2022-09-12T07:38:32.477Z,21.43
2022-09-12T07:41:01.086Z,21.43
2022-09-12T07:43:28.781Z,22.03
2022-09-12T07:45:56.868Z,21.57
2022-09-12T07:48:24.713Z,22.33
2022-09-12T07:51:00.617Z,22.37
2022-09-12T07:53:31.543Z,21.67
2022-09-12T07:55:59.162Z,22.77
2022-09-12T07:58:26.989Z,22.17
2022-09-12T08:00:54.918Z,22.37
2022-09-12T08:03:22.440Z,22.63
2022-09-12T08:05:49.903Z,23.53
2022-09-12T08:08:18.843Z,22.17
2022-09-12T08:10:46.520Z,22.33
2022-09-12T08:13:13.975Z,22.90
2022-09-12T08:15:41.586Z,22.57
2022-09-12T08:18:09.354Z,22.30
2022-09-12T08:20:37.039Z,21.63
2022-09-12T08:23:04.905Z,21.90
2022-09-12T08:25:34.560Z,22.13
2022-09-12T08:28:02.517Z,22.43
2022-09-12T08:30:30.131Z,21.80
2022-09-12T08:32:57.682Z,20.70
2022-09-12T08:35:25.168Z,19.47
2022-09-12T08:37:52.629Z,19.73
2022-09-12T08:40:20.407Z,18.83
2022-09-12T08:42:55.740Z,18.97
2022-09-12T08:45:28.066Z,18.70
2022-09-12T08:47:56.747Z,18.70
2022-09-12T08:50:29.268Z,18.87
2022-09-12T08:52:59.217Z,18.57
2022-09-12T08:55:34.511Z,19.33
2022-09-12T08:58:10.977Z,18.10
2022-09-12T09:00:44.678Z,18.67
2022-09-12T09:03:32.815Z,18.53
2022-09-12T09:06:08.342Z,18.50
2022-09-12T09:08:46.217Z,18.40
2022-09-12T09:11:39.128Z,18.53
2022-09-12T09:14:40.038Z,18.53
2022-09-12T09:17:10.093Z,18.50
2022-09-12T09:19:39.198Z,18.97
2022-09-12T09:22:10.873Z,18.20
2022-09-12T09:24:40.560Z,18.67
2022-09-12T09:27:37.024Z,18.07
2022-09-12T09:30:01.425Z,18.33
2022-09-12T09:32:32.289Z,18.63
2022-09-12T09:34:59.881Z,18.73
2022-09-12T09:37:33.083Z,18.20
2022-09-12T09:40:08.193Z,18.07
2022-09-12T09:42:40.930Z,17.77
2022-09-12T09:45:16.568Z,18.43
2022-09-12T09:47:46.257Z,18.70
2022-09-12T09:50:16.729Z,18.60
2022-09-12T09:52:44.458Z,18.80
2022-09-12T09:55:16.730Z,18.50
2022-09-12T09:57:46.669Z,18.80
2022-09-12T10:00:34.831Z,18.97
2022-09-12T10:03:06.275Z,18.27
2022-09-12T10:05:38.221Z,18.37
2022-09-12T10:08:08.247Z,18.43
2022-09-12T10:10:35.743Z,18.33
2022-09-12T10:13:10.138Z,18.57
2022-09-12T10:15:39.099Z,18.63
2022-09-12T10:18:06.933Z,18.70
2022-09-12T10:20:37.270Z,18.23
2022-09-12T10:23:24.727Z,19.27
2022-09-12T10:25:55.348Z,18.40
2022-09-12T10:28:33.520Z,19.63
2022-09-12T10:31:02.883Z,19.67
2022-09-12T10:33:31.586Z,19.27
2022-09-12T10:35:59.303Z,19.93
2022-09-12T10:38:28.745Z,19.83
2022-09-12T10:40:58.019Z,19.77
2022-09-12T10:43:28.554Z,19.47
2022-09-12T10:45:58.491Z,19.70
2022-09-12T10:48:31.636Z,19.70
2022-09-12T10:50:59.928Z,20.20
2022-09-12T10:53:32.383Z,20.08
2022-09-12T10:56:07.916Z,19.75
2022-09-12T10:58:55.921Z,19.77
2022-09-12T11:01:34.736Z,21.27
2022-09-12T11:04:20.181Z,21.02
2022-09-12T11:06:56.381Z,21.63
2022-09-12T11:09:28.451Z,20.73
2022-09-12T11:12:04.562Z,21.37
2022-09-12T11:14:41.638Z,21.00
2022-09-12T11:17:23.501Z,20.27
2022-09-12T11:20:17.617Z,19.52
2022-09-12T11:23:01.915Z,20.05
2022-09-12T11:25:32.384Z,20.73
2022-09-12T11:28:26.845Z,20.17
2022-09-12T11:31:04.492Z,19.80
2022-09-12T11:33:43.348Z,19.63
2022-09-12T11:36:24.849Z,20.00
2022-09-12T11:38:54.368Z,19.43
2022-09-12T11:41:29.366Z,19.80
2022-09-12T11:44:01.338Z,20.65
2022-09-12T11:46:32.025Z,20.40
2022-09-12T11:49:02.692Z,20.43
2022-09-12T11:51:35.934Z,20.15
2022-09-12T11:54:07.884Z,19.80
2022-09-12T11:56:39.169Z,19.90
2022-09-12T11:59:13.339Z,20.23
2022-09-12T12:01:48.342Z,19.77
2022-09-12T12:04:18.268Z,19.48
2022-09-12T12:06:53.405Z,19.70
2022-09-12T12:09:21.241Z,19.58
2022-09-12T12:11:50.920Z,19.83
2022-09-12T12:14:21.030Z,19.30
2022-09-12T12:16:49.340Z,19.83
2022-09-12T12:19:33.658Z,19.63
2022-09-12T12:22:09.887Z,19.77
2022-09-12T12:25:05.454Z,19.50
2022-09-12T12:27:54.191Z,20.00
2022-09-12T12:30:55.126Z,19.52
2022-09-12T12:34:11.578Z,20.40
2022-09-12T12:36:43.346Z,20.15
2022-09-12T12:39:44.369Z,20.45
2022-09-12T12:43:06.079Z,19.98
2022-09-12T12:46:08.331Z,19.45
2022-09-12T12:48:57.013Z,19.58
2022-09-12T12:51:37.851Z,19.85
2022-09-12T12:54:12.336Z,19.48
2022-09-12T12:56:42.084Z,19.50
2022-09-12T12:59:18.699Z,19.23
2022-09-12T13:01:52.815Z,19.30
2022-09-12T13:04:24.519Z,19.45
2022-09-12T13:06:59.281Z,19.52
2022-09-12T13:09:29.992Z,19.75
2022-09-12T13:12:02.462Z,19.60
2022-09-12T13:14:52.693Z,19.27
2022-09-12T13:17:25.178Z,18.88
2022-09-12T13:20:16.855Z,18.55
2022-09-12T13:22:44.585Z,19.00
2022-09-12T13:25:21.625Z,18.90
2022-09-12T13:27:58.824Z,18.50
2022-09-12T13:30:28.405Z,18.50
2022-09-12T13:32:58.681Z,18.67
2022-09-12T13:35:33.528Z,18.52
2022-09-12T13:38:04.894Z,18.02
2022-09-12T13:40:37.536Z,18.92
2022-09-12T13:43:15.786Z,18.73
2022-09-12T13:45:47.047Z,17.58
2022-09-12T13:48:16.669Z,18.17
2022-09-12T13:50:49.438Z,18.08
2022-09-12T13:53:18.870Z,18.15
2022-09-12T13:55:48.992Z,17.92
2022-09-12T13:58:18.472Z,17.40
2022-09-12T14:00:47.980Z,17.98
2022-09-12T14:03:46.201Z,18.00
2022-09-12T14:06:16.459Z,17.23
2022-09-12T14:08:44.390Z,17.02
2022-09-12T14:11:12.956Z,17.42
2022-09-12T14:13:40.622Z,18.33
2022-09-12T14:16:12.321Z,18.55
2022-09-12T14:18:41.884Z,18.35
2022-09-12T14:21:12.665Z,17.77
2022-09-12T14:23:42.476Z,17.58
2022-09-12T14:26:12.437Z,17.52
2022-09-12T14:28:41.883Z,17.17
2022-09-12T14:31:24.767Z,17.58
2022-09-12T14:33:53.431Z,18.10
2022-09-12T14:36:25.731Z,17.23
2022-09-12T14:38:55.409Z,17.55
2022-09-12T14:41:25.523Z,17.70
2022-09-12T14:43:55.753Z,16.90
2022-09-12T14:46:28.401Z,17.10
2022-09-12T14:48:58.765Z,17.40
2022-09-12T14:51:28.603Z,16.58
2022-09-12T14:53:56.125Z,16.92
2022-09-12T14:56:38.920Z,16.98
2022-09-12T14:59:27.475Z,17.20
2022-09-12T15:02:19.392Z,17.20
2022-09-12T15:04:48.289Z,17.35
2022-09-12T15:07:16.184Z,16.98
2022-09-12T15:09:47.266Z,17.25
2022-09-12T15:12:15.001Z,17.45
2022-09-12T15:14:42.729Z,17.60
2022-09-12T15:17:10.193Z,17.52
2022-09-12T15:19:38.989Z,16.85
2022-09-12T15:22:06.511Z,17.50
2022-09-12T15:24:34.002Z,17.00
2022-09-12T15:27:01.629Z,17.13
2022-09-12T15:29:29.058Z,17.48
2022-09-12T15:31:56.530Z,17.17
2022-09-12T15:34:24.877Z,16.98
2022-09-12T15:36:53.756Z,16.98
2022-09-12T15:39:21.365Z,17.85
2022-09-12T15:41:49.357Z,17.15
2022-09-12T15:44:16.877Z,17.40
2022-09-12T15:46:44.495Z,17.38
2022-09-12T15:49:11.981Z,17.60
2022-09-12T15:51:40.033Z,17.60
2022-09-12T15:54:11.933Z,17.17
2022-09-12T15:56:39.450Z,16.98
2022-09-12T15:59:06.981Z,17.85
2022-09-12T16:01:34.526Z,17.05
2022-09-12T16:04:03.260Z,17.10
2022-09-12T16:06:36.782Z,17.50
2022-09-12T16:09:04.965Z,17.17
2022-09-12T16:11:33.889Z,17.08
2022-09-12T16:14:01.369Z,16.83
2022-09-12T16:16:28.854Z,17.57
2022-09-12T16:18:56.415Z,17.93
2022-09-12T16:21:26.102Z,18.17
2022-09-12T16:23:54.073Z,17.03
2022-09-12T16:26:25.825Z,17.47
2022-09-12T16:28:56.975Z,17.77
2022-09-12T16:31:28.868Z,17.33
2022-09-12T16:33:56.830Z,16.97
2022-09-12T16:36:25.178Z,17.07
2022-09-12T16:38:54.225Z,17.53
2022-09-12T16:41:24.574Z,17.40
2022-09-12T16:43:52.780Z,17.53
2022-09-12T16:46:26.148Z,17.30
2022-09-12T16:48:55.619Z,17.80
2022-09-12T16:51:25.845Z,17.40
2022-09-12T16:53:53.518Z,16.77
2022-09-12T16:56:21.607Z,17.03
2022-09-12T16:58:49.444Z,16.83
2022-09-12T17:01:19.039Z,15.93
2022-09-12T17:03:48.042Z,16.20
2022-09-12T17:06:18.000Z,16.23
2022-09-12T17:08:48.452Z,15.80
2022-09-12T17:11:18.217Z,16.20
2022-09-12T17:14:03.704Z,15.87
2022-09-12T17:16:32.921Z,14.87
2022-09-12T17:19:01.752Z,14.63
2022-09-12T17:21:29.356Z,15.80
2022-09-12T17:23:57.166Z,15.50
2022-09-12T17:26:24.633Z,14.10
2022-09-12T17:28:52.161Z,14.90
2022-09-12T17:31:19.757Z,14.53
2022-09-12T17:33:47.859Z,14.00
2022-09-12T17:36:17.853Z,13.33
2022-09-12T17:38:46.337Z,13.90
2022-09-12T17:41:17.527Z,14.20
2022-09-12T17:43:46.250Z,13.57
2022-09-12T17:46:14.669Z,13.53
2022-09-12T17:48:42.629Z,13.00
2022-09-12T17:51:11.206Z,13.20
2022-09-12T17:53:40.358Z,13.03
2022-09-12T17:56:08.915Z,12.73
2022-09-12T17:58:37.083Z,12.50
2022-09-12T18:01:23.515Z,12.03
2022-09-12T18:03:51.858Z,13.17
2022-09-12T18:06:19.579Z,12.50
2022-09-12T18:08:48.428Z,11.73
2022-09-12T18:11:15.909Z,11.50
2022-09-12T18:13:43.461Z,11.57
2022-09-12T18:16:12.397Z,11.10
2022-09-12T18:18:40.335Z,11.37
2022-09-12T18:21:08.945Z,11.50
2022-09-12T18:23:36.564Z,11.17
2022-09-12T18:26:06.921Z,11.73
2022-09-12T18:28:34.986Z,11.10
2022-09-12T18:31:02.736Z,11.70
2022-09-12T18:33:30.305Z,11.70
2022-09-12T18:35:57.775Z,10.60
2022-09-12T18:38:25.346Z,9.90
2022-09-12T18:41:02.401Z,10.87
2022-09-12T18:43:31.622Z,10.77
2022-09-12T18:46:04.030Z,10.90
2022-09-12T18:48:32.655Z,10.67
2022-09-12T18:51:05.770Z,10.70
2022-09-12T18:53:36.301Z,10.47
2022-09-12T18:56:06.155Z,11.47
2022-09-12T18:58:35.213Z,10.53
2022-09-12T19:01:09.891Z,10.80
2022-09-12T19:03:37.599Z,11.80
2022-09-12T19:06:09.704Z,11.60
2022-09-12T19:08:37.282Z,12.10
2022-09-12T19:11:05.349Z,12.37
2022-09-12T19:13:33.057Z,12.20
2022-09-12T19:16:03.040Z,12.53
2022-09-12T19:18:31.239Z,13.23
2022-09-12T19:20:58.743Z,13.70
2022-09-12T19:23:26.867Z,13.27
2022-09-12T19:25:57.665Z,13.40
2022-09-12T19:28:26.799Z,14.00
2022-09-12T19:30:54.739Z,13.77
2022-09-12T19:33:25.668Z,13.83
2022-09-12T19:35:53.186Z,14.37
2022-09-12T19:38:20.706Z,14.80
2022-09-12T19:40:56.626Z,15.40
2022-09-12T19:43:24.362Z,15.37
2022-09-12T19:45:52.822Z,15.43
2022-09-12T19:48:22.322Z,15.10
2022-09-12T19:50:51.444Z,14.97
2022-09-12T19:53:19.235Z,14.67
2022-09-12T19:55:47.227Z,14.87
2022-09-12T19:58:14.783Z,14.57
2022-09-12T20:00:42.265Z,15.33
2022-09-12T20:03:09.728Z,15.73
2022-09-12T20:05:42.026Z,15.43
2022-09-12T20:08:11.554Z,15.43
2022-09-12T20:10:39.038Z,16.33
2022-09-12T20:13:06.633Z,16.30
2022-09-12T20:15:34.186Z,15.57
2022-09-12T20:18:01.710Z,15.30
2022-09-12T20:20:29.226Z,15.00
2022-09-12T20:22:56.729Z,15.60
2022-09-12T20:25:25.769Z,15.60
2022-09-12T20:27:56.946Z,15.30
2022-09-12T20:30:27.067Z,15.50
2022-09-12T20:32:54.564Z,15.53
2022-09-12T20:35:22.680Z,15.10
2022-09-12T20:37:50.250Z,15.50
2022-09-12T20:40:18.094Z,15.30
2022-09-12T20:42:47.013Z,15.20
2022-09-12T20:45:14.760Z,15.87
2022-09-12T20:47:42.248Z,15.50
2022-09-12T20:50:10.445Z,15.90
2022-09-12T20:52:37.922Z,15.27
2022-09-12T20:55:06.383Z,15.27
2022-09-12T20:57:34.170Z,15.50
2022-09-12T21:00:03.582Z,15.43
2022-09-12T21:02:31.119Z,14.67
2022-09-12T21:04:58.798Z,15.37
2022-09-12T21:07:26.338Z,15.40
2022-09-12T21:09:54.235Z,14.97
2022-09-12T21:12:28.334Z,15.20
2022-09-12T21:14:55.794Z,15.03
2022-09-12T21:17:26.879Z,15.00
2022-09-12T21:19:54.511Z,15.30
2022-09-12T21:22:22.154Z,15.40
2022-09-12T21:24:49.733Z,15.57
2022-09-12T21:27:17.202Z,15.40
2022-09-12T21:29:44.673Z,14.90
2022-09-12T21:32:14.376Z,15.30
2022-09-12T21:34:43.338Z,15.10
2022-09-12T21:37:10.820Z,15.40
2022-09-12T21:39:38.320Z,15.20
2022-09-12T21:42:05.899Z,14.90
2022-09-12T21:44:33.449Z,15.30
2022-09-12T21:47:00.914Z,15.37
2022-09-12T21:49:28.542Z,15.87
2022-09-12T21:51:57.638Z,16.00
2022-09-12T21:54:25.103Z,15.90
2022-09-12T21:56:52.981Z,15.70
2022-09-12T21:59:20.574Z,15.63
2022-09-12T22:01:48.403Z,15.53
2022-09-12T22:04:16.009Z,15.40
2022-09-12T22:06:43.602Z,15.13
2022-09-12T22:09:12.509Z,16.30
2022-09-12T22:11:40.034Z,15.97
2022-09-12T22:14:07.478Z,16.00
2022-09-12T22:16:34.961Z,15.90
2022-09-12T22:19:02.444Z,16.37
2022-09-12T22:21:30.586Z,16.17
2022-09-12T22:24:15.392Z,15.97
2022-09-12T22:26:46.098Z,15.20
2022-09-12T22:29:14.478Z,15.83
2022-09-12T22:31:42.485Z,15.73
2022-09-12T22:34:10.000Z,15.73
2022-09-12T22:36:39.141Z,15.50
2022-09-12T22:39:07.103Z,15.47
2022-09-12T22:41:34.672Z,15.90
2022-09-12T22:44:03.700Z,15.17
2022-09-12T22:46:31.759Z,15.13
2022-09-12T22:48:59.329Z,15.70
2022-09-12T22:51:26.891Z,14.93
2022-09-12T22:53:54.426Z,15.40
2022-09-12T22:56:22.457Z,15.07
2022-09-12T22:58:50.754Z,15.60
2022-09-12T23:01:20.147Z,15.17
2022-09-12T23:03:47.706Z,15.93
2022-09-12T23:06:15.318Z,16.23
2022-09-12T23:08:43.178Z,16.07
2022-09-12T23:11:12.766Z,15.50
2022-09-12T23:13:42.829Z,15.57
2022-09-12T23:16:14.648Z,16.20
2022-09-12T23:18:43.651Z,15.60
2022-09-12T23:21:13.195Z,15.93
2022-09-12T23:23:40.919Z,15.43
2022-09-12T23:26:10.898Z,16.17
2022-09-12T23:28:40.212Z,16.30
2022-09-12T23:31:09.397Z,15.97
2022-09-12T23:33:37.555Z,15.63
2022-09-12T23:36:12.572Z,15.63
2022-09-12T23:38:40.069Z,16.10
2022-09-12T23:41:07.940Z,16.33
2022-09-12T23:43:35.753Z,16.20
2022-09-12T23:46:04.476Z,16.10
2022-09-12T23:48:33.016Z,15.53
2022-09-12T23:51:00.728Z,15.23
2022-09-12T23:53:29.584Z,15.17
2022-09-12T23:55:57.120Z,15.10
2022-09-12T23:58:24.991Z,15.83
